Terminal Aerodrome Forecast
Issued by NWS

Home | Current Version | Previous Version | Text Only | Print | Product List | Glossary Off
Versions: 1 2 3 4 5 6 7 8 9 10 11 12 13 14 15

000
FTUS43 KUNR 300831 AAA
TAFGCC
TAF AMD
KGCC 300831Z 3009/0106 11005KT P6SM OVC030
     FM301100 05008KT P6SM -RASN BKN008 OVC015
     FM301500 06010KT P6SM BKN015 OVC035
     FM302000 04016KT P6SM BKN035
     FM010000 VRB05KT P6SM BKN090=

USA.gov is the U.S. government's official web portal to all federal, state and local government web resources and services.